sensor_id;sensor_type;location;lat;lon;timestamp;P1;durP1;ratioP1;P2;durP2;ratioP2
26820;SDS011;37186;51.394;5.454;2023-04-25T00:01:48;2.50;;;2.50;;
26820;SDS011;37186;51.394;5.454;2023-04-25T00:04:48;2.70;;;2.70;;
26820;SDS011;37186;51.394;5.454;2023-04-25T00:07:49;2.80;;;2.70;;
26820;SDS011;37186;51.394;5.454;2023-04-25T00:10:50;2.87;;;2.77;;
26820;SDS011;37186;51.394;5.454;2023-04-25T00:13:50;2.90;;;2.80;;
26820;SDS011;37186;51.394;5.454;2023-04-25T00:16:51;2.70;;;2.70;;
26820;SDS011;37186;51.394;5.454;2023-04-25T00:19:51;2.90;;;2.80;;
26820;SDS011;37186;51.394;5.454;2023-04-25T00:22:52;2.53;;;2.53;;
26820;SDS011;37186;51.394;5.454;2023-04-25T00:25:53;2.90;;;2.80;;
26820;SDS011;37186;51.394;5.454;2023-04-25T00:28:53;2.60;;;2.60;;
26820;SDS011;37186;51.394;5.454;2023-04-25T00:31:54;2.60;;;2.60;;
26820;SDS011;37186;51.394;5.454;2023-04-25T00:34:54;2.93;;;2.83;;
26820;SDS011;37186;51.394;5.454;2023-04-25T00:37:57;2.90;;;2.80;;
26820;SDS011;37186;51.394;5.454;2023-04-25T00:40:58;3.00;;;2.90;;
26820;SDS011;37186;51.394;5.454;2023-04-25T00:43:58;2.70;;;2.70;;
26820;SDS011;37186;51.394;5.454;2023-04-25T00:47:01;3.10;;;3.00;;
26820;SDS011;37186;51.394;5.454;2023-04-25T00:50:02;2.87;;;2.77;;
26820;SDS011;37186;51.394;5.454;2023-04-25T00:53:03;3.00;;;2.90;;
26820;SDS011;37186;51.394;5.454;2023-04-25T00:56:03;2.77;;;2.70;;
26820;SDS011;37186;51.394;5.454;2023-04-25T00:59:05;3.00;;;2.90;;
26820;SDS011;37186;51.394;5.454;2023-04-25T01:02:06;3.10;;;3.00;;
26820;SDS011;37186;51.394;5.454;2023-04-25T01:05:09;3.20;;;3.10;;
26820;SDS011;37186;51.394;5.454;2023-04-25T01:08:09;3.10;;;3.00;;
26820;SDS011;37186;51.394;5.454;2023-04-25T01:11:10;2.90;;;2.80;;
26820;SDS011;37186;51.394;5.454;2023-04-25T01:14:10;3.00;;;2.90;;
26820;SDS011;37186;51.394;5.454;2023-04-25T01:17:11;3.10;;;3.00;;
26820;SDS011;37186;51.394;5.454;2023-04-25T01:20:12;2.97;;;2.87;;
26820;SDS011;37186;51.394;5.454;2023-04-25T01:23:14;3.00;;;2.90;;
26820;SDS011;37186;51.394;5.454;2023-04-25T01:26:14;2.97;;;2.87;;
26820;SDS011;37186;51.394;5.454;2023-04-25T01:29:16;2.90;;;2.80;;
26820;SDS011;37186;51.394;5.454;2023-04-25T01:32:18;3.03;;;2.93;;
26820;SDS011;37186;51.394;5.454;2023-04-25T01:35:18;3.00;;;2.90;;
26820;SDS011;37186;51.394;5.454;2023-04-25T01:38:19;3.00;;;2.90;;
26820;SDS011;37186;51.394;5.454;2023-04-25T01:41:19;2.90;;;2.80;;
26820;SDS011;37186;51.394;5.454;2023-04-25T01:44:23;2.80;;;2.70;;
26820;SDS011;37186;51.394;5.454;2023-04-25T01:47:23;3.00;;;2.90;;
26820;SDS011;37186;51.394;5.454;2023-04-25T01:50:24;3.00;;;2.90;;
26820;SDS011;37186;51.394;5.454;2023-04-25T01:53:25;3.00;;;2.90;;
26820;SDS011;37186;51.394;5.454;2023-04-25T01:56:29;2.80;;;2.70;;
26820;SDS011;37186;51.394;5.454;2023-04-25T01:59:30;2.80;;;2.73;;
26820;SDS011;37186;51.394;5.454;2023-04-25T02:02:31;2.90;;;2.80;;
26820;SDS011;37186;51.394;5.454;2023-04-25T02:05:35;3.03;;;2.93;;
26820;SDS011;37186;51.394;5.454;2023-04-25T02:08:37;2.87;;;2.77;;
26820;SDS011;37186;51.394;5.454;2023-04-25T02:11:37;2.67;;;2.63;;
26820;SDS011;37186;51.394;5.454;2023-04-25T02:14:38;3.00;;;2.90;;
26820;SDS011;37186;51.394;5.454;2023-04-25T02:17:39;2.77;;;2.70;;
26820;SDS011;37186;51.394;5.454;2023-04-25T02:20:39;2.87;;;2.77;;
26820;SDS011;37186;51.394;5.454;2023-04-25T02:23:40;2.93;;;2.83;;
26820;SDS011;37186;51.394;5.454;2023-04-25T02:26:40;2.93;;;2.83;;
26820;SDS011;37186;51.394;5.454;2023-04-25T02:29:41;2.90;;;2.80;;
26820;SDS011;37186;51.394;5.454;2023-04-25T02:32:41;2.83;;;2.73;;
26820;SDS011;37186;51.394;5.454;2023-04-25T02:35:42;3.00;;;2.90;;
26820;SDS011;37186;51.394;5.454;2023-04-25T02:38:42;3.03;;;2.93;;
26820;SDS011;37186;51.394;5.454;2023-04-25T02:41:43;2.70;;;2.70;;
26820;SDS011;37186;51.394;5.454;2023-04-25T02:44:44;3.07;;;2.97;;
26820;SDS011;37186;51.394;5.454;2023-04-25T02:47:44;2.97;;;2.87;;
26820;SDS011;37186;51.394;5.454;2023-04-25T02:50:45;3.00;;;2.90;;
26820;SDS011;37186;51.394;5.454;2023-04-25T02:53:45;2.90;;;2.80;;
26820;SDS011;37186;51.394;5.454;2023-04-25T02:56:46;2.90;;;2.80;;
26820;SDS011;37186;51.394;5.454;2023-04-25T02:59:46;3.00;;;2.90;;
26820;SDS011;37186;51.394;5.454;2023-04-25T03:02:47;3.00;;;2.90;;
26820;SDS011;37186;51.394;5.454;2023-04-25T03:05:50;2.90;;;2.80;;
26820;SDS011;37186;51.394;5.454;2023-04-25T03:08:51;3.00;;;2.90;;
26820;SDS011;37186;51.394;5.454;2023-04-25T03:11:52;2.87;;;2.77;;
26820;SDS011;37186;51.394;5.454;2023-04-25T03:14:53;2.97;;;2.87;;
26820;SDS011;37186;51.394;5.454;2023-04-25T03:17:53;2.67;;;2.67;;
26820;SDS011;37186;51.394;5.454;2023-04-25T03:20:54;2.70;;;2.70;;
26820;SDS011;37186;51.394;5.454;2023-04-25T03:23:54;2.70;;;2.67;;
26820;SDS011;37186;51.394;5.454;2023-04-25T03:26:55;2.77;;;2.73;;
26820;SDS011;37186;51.394;5.454;2023-04-25T03:29:55;2.67;;;2.67;;
26820;SDS011;37186;51.394;5.454;2023-04-25T03:32:56;2.50;;;2.50;;
26820;SDS011;37186;51.394;5.454;2023-04-25T03:35:56;2.57;;;2.57;;
26820;SDS011;37186;51.394;5.454;2023-04-25T03:38:57;2.57;;;2.57;;
26820;SDS011;37186;51.394;5.454;2023-04-25T03:41:57;2.77;;;2.70;;
26820;SDS011;37186;51.394;5.454;2023-04-25T03:44:58;2.70;;;2.60;;
26820;SDS011;37186;51.394;5.454;2023-04-25T03:47:58;2.73;;;2.70;;
26820;SDS011;37186;51.394;5.454;2023-04-25T03:50:59;2.87;;;2.77;;
26820;SDS011;37186;51.394;5.454;2023-04-25T03:53:59;2.60;;;2.60;;
26820;SDS011;37186;51.394;5.454;2023-04-25T03:57:00;2.93;;;2.83;;
26820;SDS011;37186;51.394;5.454;2023-04-25T04:00:00;2.90;;;2.80;;
26820;SDS011;37186;51.394;5.454;2023-04-25T04:03:02;3.00;;;2.90;;
26820;SDS011;37186;51.394;5.454;2023-04-25T04:06:05;2.80;;;2.70;;
26820;SDS011;37186;51.394;5.454;2023-04-25T04:09:06;2.90;;;2.80;;
26820;SDS011;37186;51.394;5.454;2023-04-25T04:12:10;2.73;;;2.70;;
26820;SDS011;37186;51.394;5.454;2023-04-25T04:15:11;2.50;;;2.50;;
26820;SDS011;37186;51.394;5.454;2023-04-25T04:18:11;2.90;;;2.80;;
26820;SDS011;37186;51.394;5.454;2023-04-25T04:21:12;2.90;;;2.80;;
26820;SDS011;37186;51.394;5.454;2023-04-25T04:24:12;2.70;;;2.70;;
26820;SDS011;37186;51.394;5.454;2023-04-25T04:27:13;2.90;;;2.80;;
26820;SDS011;37186;51.394;5.454;2023-04-25T04:30:13;2.80;;;2.70;;
26820;SDS011;37186;51.394;5.454;2023-04-25T04:33:14;2.73;;;2.70;;
26820;SDS011;37186;51.394;5.454;2023-04-25T04:36:15;3.00;;;2.90;;
26820;SDS011;37186;51.394;5.454;2023-04-25T04:39:15;3.00;;;2.90;;
26820;SDS011;37186;51.394;5.454;2023-04-25T04:42:16;2.87;;;2.77;;
26820;SDS011;37186;51.394;5.454;2023-04-25T04:45:17;3.07;;;2.97;;
26820;SDS011;37186;51.394;5.454;2023-04-25T04:48:18;2.90;;;2.80;;
26820;SDS011;37186;51.394;5.454;2023-04-25T04:51:18;3.07;;;2.97;;
26820;SDS011;37186;51.394;5.454;2023-04-25T04:54:19;3.00;;;2.90;;
26820;SDS011;37186;51.394;5.454;2023-04-25T04:57:20;3.00;;;2.90;;
26820;SDS011;37186;51.394;5.454;2023-04-25T05:00:20;3.10;;;3.00;;
26820;SDS011;37186;51.394;5.454;2023-04-25T05:03:21;3.00;;;2.90;;
26820;SDS011;37186;51.394;5.454;2023-04-25T05:06:22;3.00;;;2.90;;
26820;SDS011;37186;51.394;5.454;2023-04-25T05:09:22;3.00;;;2.90;;
26820;SDS011;37186;51.394;5.454;2023-04-25T05:12:25;2.87;;;2.77;;
26820;SDS011;37186;51.394;5.454;2023-04-25T05:15:26;2.90;;;2.80;;
26820;SDS011;37186;51.394;5.454;2023-04-25T05:18:26;2.90;;;2.80;;
26820;SDS011;37186;51.394;5.454;2023-04-25T05:21:27;2.97;;;2.87;;
26820;SDS011;37186;51.394;5.454;2023-04-25T05:24:28;3.00;;;2.90;;
26820;SDS011;37186;51.394;5.454;2023-04-25T05:27:28;2.90;;;2.80;;
26820;SDS011;37186;51.394;5.454;2023-04-25T05:30:29;3.20;;;3.10;;
26820;SDS011;37186;51.394;5.454;2023-04-25T05:33:29;3.00;;;2.90;;
26820;SDS011;37186;51.394;5.454;2023-04-25T05:36:30;3.10;;;3.00;;
26820;SDS011;37186;51.394;5.454;2023-04-25T05:39:32;2.97;;;2.87;;
26820;SDS011;37186;51.394;5.454;2023-04-25T05:42:32;2.97;;;2.87;;
26820;SDS011;37186;51.394;5.454;2023-04-25T05:45:33;3.20;;;3.10;;
26820;SDS011;37186;51.394;5.454;2023-04-25T05:48:33;3.00;;;2.90;;
26820;SDS011;37186;51.394;5.454;2023-04-25T05:51:34;3.40;;;3.30;;
26820;SDS011;37186;51.394;5.454;2023-04-25T05:54:35;3.10;;;3.00;;
26820;SDS011;37186;51.394;5.454;2023-04-25T05:57:35;3.23;;;3.13;;
26820;SDS011;37186;51.394;5.454;2023-04-25T06:00:36;3.20;;;3.10;;
26820;SDS011;37186;51.394;5.454;2023-04-25T06:03:36;3.20;;;3.10;;
26820;SDS011;37186;51.394;5.454;2023-04-25T06:06:38;3.30;;;3.20;;
26820;SDS011;37186;51.394;5.454;2023-04-25T06:09:38;3.30;;;3.20;;
26820;SDS011;37186;51.394;5.454;2023-04-25T06:12:39;3.40;;;3.30;;
26820;SDS011;37186;51.394;5.454;2023-04-25T06:15:40;3.40;;;3.30;;
26820;SDS011;37186;51.394;5.454;2023-04-25T06:18:41;3.23;;;3.13;;
26820;SDS011;37186;51.394;5.454;2023-04-25T06:21:42;3.50;;;3.40;;
26820;SDS011;37186;51.394;5.454;2023-04-25T06:24:44;3.33;;;3.23;;
26820;SDS011;37186;51.394;5.454;2023-04-25T06:27:45;3.40;;;3.30;;
26820;SDS011;37186;51.394;5.454;2023-04-25T06:30:46;3.43;;;3.33;;
26820;SDS011;37186;51.394;5.454;2023-04-25T06:33:46;3.43;;;3.33;;
26820;SDS011;37186;51.394;5.454;2023-04-25T06:36:48;3.47;;;3.37;;
26820;SDS011;37186;51.394;5.454;2023-04-25T06:39:48;3.57;;;3.47;;
26820;SDS011;37186;51.394;5.454;2023-04-25T06:42:49;3.27;;;3.17;;
26820;SDS011;37186;51.394;5.454;2023-04-25T06:45:49;3.50;;;3.40;;
26820;SDS011;37186;51.394;5.454;2023-04-25T06:48:50;3.30;;;3.20;;
26820;SDS011;37186;51.394;5.454;2023-04-25T06:51:51;3.57;;;3.47;;
26820;SDS011;37186;51.394;5.454;2023-04-25T06:54:51;3.37;;;3.27;;
26820;SDS011;37186;51.394;5.454;2023-04-25T06:57:51;3.30;;;3.20;;
26820;SDS011;37186;51.394;5.454;2023-04-25T07:00:52;3.50;;;3.40;;
26820;SDS011;37186;51.394;5.454;2023-04-25T07:03:52;3.37;;;3.27;;
26820;SDS011;37186;51.394;5.454;2023-04-25T07:06:53;3.33;;;3.23;;
26820;SDS011;37186;51.394;5.454;2023-04-25T07:09:54;3.77;;;3.67;;
26820;SDS011;37186;51.394;5.454;2023-04-25T07:12:55;3.73;;;3.63;;
26820;SDS011;37186;51.394;5.454;2023-04-25T07:15:55;3.80;;;3.70;;
26820;SDS011;37186;51.394;5.454;2023-04-25T07:18:56;3.53;;;3.43;;
26820;SDS011;37186;51.394;5.454;2023-04-25T07:21:57;3.50;;;3.40;;
26820;SDS011;37186;51.394;5.454;2023-04-25T07:24:57;3.50;;;3.40;;
26820;SDS011;37186;51.394;5.454;2023-04-25T07:27:58;3.13;;;3.03;;
26820;SDS011;37186;51.394;5.454;2023-04-25T07:30:58;3.10;;;3.00;;
26820;SDS011;37186;51.394;5.454;2023-04-25T07:33:59;3.10;;;3.00;;
26820;SDS011;37186;51.394;5.454;2023-04-25T07:37:00;3.00;;;2.90;;
26820;SDS011;37186;51.394;5.454;2023-04-25T07:40:01;3.00;;;2.90;;
26820;SDS011;37186;51.394;5.454;2023-04-25T07:43:03;3.00;;;2.90;;
26820;SDS011;37186;51.394;5.454;2023-04-25T07:46:04;3.00;;;2.90;;
26820;SDS011;37186;51.394;5.454;2023-04-25T07:49:04;3.00;;;2.90;;
26820;SDS011;37186;51.394;5.454;2023-04-25T07:52:05;3.10;;;3.00;;
26820;SDS011;37186;51.394;5.454;2023-04-25T07:55:06;3.10;;;3.00;;
26820;SDS011;37186;51.394;5.454;2023-04-25T07:58:07;3.00;;;2.90;;
26820;SDS011;37186;51.394;5.454;2023-04-25T08:01:07;3.23;;;3.13;;
26820;SDS011;37186;51.394;5.454;2023-04-25T08:04:08;3.10;;;3.00;;
26820;SDS011;37186;51.394;5.454;2023-04-25T08:07:08;3.00;;;2.90;;
26820;SDS011;37186;51.394;5.454;2023-04-25T08:10:09;3.00;;;2.90;;
26820;SDS011;37186;51.394;5.454;2023-04-25T08:13:10;3.00;;;2.90;;
26820;SDS011;37186;51.394;5.454;2023-04-25T08:16:10;3.13;;;3.03;;
26820;SDS011;37186;51.394;5.454;2023-04-25T08:19:11;3.00;;;2.90;;
26820;SDS011;37186;51.394;5.454;2023-04-25T08:22:11;3.00;;;2.90;;
26820;SDS011;37186;51.394;5.454;2023-04-25T08:25:12;3.30;;;3.20;;
26820;SDS011;37186;51.394;5.454;2023-04-25T08:28:13;3.00;;;2.90;;
26820;SDS011;37186;51.394;5.454;2023-04-25T08:31:15;3.00;;;2.90;;
26820;SDS011;37186;51.394;5.454;2023-04-25T08:34:15;2.90;;;2.80;;
26820;SDS011;37186;51.394;5.454;2023-04-25T08:37:16;3.13;;;3.03;;
26820;SDS011;37186;51.394;5.454;2023-04-25T08:40:19;3.03;;;2.93;;
26820;SDS011;37186;51.394;5.454;2023-04-25T08:43:29;3.00;;;2.90;;
26820;SDS011;37186;51.394;5.454;2023-04-25T08:46:30;3.03;;;2.93;;
26820;SDS011;37186;51.394;5.454;2023-04-25T08:49:32;2.90;;;2.80;;
26820;SDS011;37186;51.394;5.454;2023-04-25T08:52:37;3.00;;;2.90;;
26820;SDS011;37186;51.394;5.454;2023-04-25T08:55:43;2.90;;;2.80;;
26820;SDS011;37186;51.394;5.454;2023-04-25T08:58:47;2.90;;;2.80;;
26820;SDS011;37186;51.394;5.454;2023-04-25T09:01:50;3.20;;;3.10;;
26820;SDS011;37186;51.394;5.454;2023-04-25T09:04:51;2.90;;;2.80;;
26820;SDS011;37186;51.394;5.454;2023-04-25T09:07:54;2.73;;;2.70;;
26820;SDS011;37186;51.394;5.454;2023-04-25T09:10:56;3.10;;;3.00;;
26820;SDS011;37186;51.394;5.454;2023-04-25T09:17:33;3.10;;;3.00;;
26820;SDS011;37186;51.394;5.454;2023-04-25T09:20:34;3.20;;;3.10;;
26820;SDS011;37186;51.394;5.454;2023-04-25T09:23:46;3.20;;;3.10;;
26820;SDS011;37186;51.394;5.454;2023-04-25T09:26:48;3.17;;;3.07;;
26820;SDS011;37186;51.394;5.454;2023-04-25T09:29:48;3.13;;;3.03;;
26820;SDS011;37186;51.394;5.454;2023-04-25T09:33:03;3.10;;;3.00;;
26820;SDS011;37186;51.394;5.454;2023-04-25T09:36:08;3.00;;;2.90;;
26820;SDS011;37186;51.394;5.454;2023-04-25T09:39:12;3.07;;;2.97;;
26820;SDS011;37186;51.394;5.454;2023-04-25T09:42:16;3.13;;;3.03;;
26820;SDS011;37186;51.394;5.454;2023-04-25T09:45:17;2.93;;;2.83;;
26820;SDS011;37186;51.394;5.454;2023-04-25T09:48:18;3.00;;;2.90;;
26820;SDS011;37186;51.394;5.454;2023-04-25T09:51:23;3.03;;;2.93;;
26820;SDS011;37186;51.394;5.454;2023-04-25T09:54:26;2.90;;;2.80;;
26820;SDS011;37186;51.394;5.454;2023-04-25T09:57:26;2.70;;;2.70;;
26820;SDS011;37186;51.394;5.454;2023-04-25T10:00:27;3.20;;;3.10;;
26820;SDS011;37186;51.394;5.454;2023-04-25T10:03:32;3.00;;;2.90;;
26820;SDS011;37186;51.394;5.454;2023-04-25T10:06:34;3.20;;;3.10;;
26820;SDS011;37186;51.394;5.454;2023-04-25T10:09:37;3.00;;;2.90;;
26820;SDS011;37186;51.394;5.454;2023-04-25T10:12:39;3.00;;;2.90;;
26820;SDS011;37186;51.394;5.454;2023-04-25T10:15:42;3.00;;;2.90;;
26820;SDS011;37186;51.394;5.454;2023-04-25T10:18:43;3.00;;;2.90;;
26820;SDS011;37186;51.394;5.454;2023-04-25T10:21:48;3.10;;;3.00;;
26820;SDS011;37186;51.394;5.454;2023-04-25T10:24:51;3.13;;;3.03;;
26820;SDS011;37186;51.394;5.454;2023-04-25T10:27:53;3.13;;;3.03;;
26820;SDS011;37186;51.394;5.454;2023-04-25T10:31:00;3.10;;;3.00;;
26820;SDS011;37186;51.394;5.454;2023-04-25T10:34:05;3.00;;;2.90;;
26820;SDS011;37186;51.394;5.454;2023-04-25T10:37:05;3.20;;;3.10;;
26820;SDS011;37186;51.394;5.454;2023-04-25T10:40:09;2.90;;;2.80;;
26820;SDS011;37186;51.394;5.454;2023-04-25T10:46:39;3.23;;;3.13;;
26820;SDS011;37186;51.394;5.454;2023-04-25T10:49:43;3.10;;;3.00;;
26820;SDS011;37186;51.394;5.454;2023-04-25T10:52:43;3.07;;;2.97;;
26820;SDS011;37186;51.394;5.454;2023-04-25T10:55:51;3.20;;;3.10;;
26820;SDS011;37186;51.394;5.454;2023-04-25T10:58:51;3.27;;;3.17;;
26820;SDS011;37186;51.394;5.454;2023-04-25T11:02:02;3.67;;;3.57;;
26820;SDS011;37186;51.394;5.454;2023-04-25T11:05:16;3.80;;;3.70;;
26820;SDS011;37186;51.394;5.454;2023-04-25T11:08:43;4.03;;;3.93;;
26820;SDS011;37186;51.394;5.454;2023-04-25T11:11:53;4.10;;;4.00;;
26820;SDS011;37186;51.394;5.454;2023-04-25T11:14:59;3.97;;;3.87;;
26820;SDS011;37186;51.394;5.454;2023-04-25T11:18:01;3.97;;;3.87;;
26820;SDS011;37186;51.394;5.454;2023-04-25T11:21:02;4.00;;;3.90;;
26820;SDS011;37186;51.394;5.454;2023-04-25T11:24:03;3.93;;;3.83;;
26820;SDS011;37186;51.394;5.454;2023-04-25T11:27:04;3.97;;;3.87;;
26820;SDS011;37186;51.394;5.454;2023-04-25T11:30:14;3.93;;;3.83;;
26820;SDS011;37186;51.394;5.454;2023-04-25T11:33:18;3.80;;;3.70;;
26820;SDS011;37186;51.394;5.454;2023-04-25T11:36:24;3.90;;;3.80;;
26820;SDS011;37186;51.394;5.454;2023-04-25T11:39:26;3.77;;;3.67;;
26820;SDS011;37186;51.394;5.454;2023-04-25T11:42:27;4.10;;;4.00;;
26820;SDS011;37186;51.394;5.454;2023-04-25T11:45:28;3.90;;;3.80;;
26820;SDS011;37186;51.394;5.454;2023-04-25T11:48:36;3.97;;;3.87;;
26820;SDS011;37186;51.394;5.454;2023-04-25T11:54:44;3.90;;;3.80;;
26820;SDS011;37186;51.394;5.454;2023-04-25T11:57:47;3.97;;;3.87;;
26820;SDS011;37186;51.394;5.454;2023-04-25T12:00:49;3.90;;;3.80;;
26820;SDS011;37186;51.394;5.454;2023-04-25T12:03:49;4.03;;;3.93;;
26820;SDS011;37186;51.394;5.454;2023-04-25T12:06:54;4.13;;;4.03;;
26820;SDS011;37186;51.394;5.454;2023-04-25T12:09:55;3.90;;;3.80;;
26820;SDS011;37186;51.394;5.454;2023-04-25T12:12:55;3.83;;;3.73;;
26820;SDS011;37186;51.394;5.454;2023-04-25T12:15:56;3.90;;;3.80;;
26820;SDS011;37186;51.394;5.454;2023-04-25T12:18:57;3.77;;;3.67;;
26820;SDS011;37186;51.394;5.454;2023-04-25T12:22:00;4.03;;;3.93;;
26820;SDS011;37186;51.394;5.454;2023-04-25T12:25:03;4.20;;;4.10;;
26820;SDS011;37186;51.394;5.454;2023-04-25T12:28:15;4.20;;;4.10;;
26820;SDS011;37186;51.394;5.454;2023-04-25T12:31:15;4.13;;;4.03;;
26820;SDS011;37186;51.394;5.454;2023-04-25T12:34:16;4.20;;;4.10;;
26820;SDS011;37186;51.394;5.454;2023-04-25T12:37:17;4.40;;;4.30;;
26820;SDS011;37186;51.394;5.454;2023-04-25T12:40:18;4.70;;;4.60;;
26820;SDS011;37186;51.394;5.454;2023-04-25T12:43:18;4.73;;;4.63;;
26820;SDS011;37186;51.394;5.454;2023-04-25T12:46:19;4.53;;;4.43;;
26820;SDS011;37186;51.394;5.454;2023-04-25T12:49:20;4.73;;;4.63;;
26820;SDS011;37186;51.394;5.454;2023-04-25T12:52:20;4.47;;;4.37;;
26820;SDS011;37186;51.394;5.454;2023-04-25T12:55:21;4.40;;;4.30;;
26820;SDS011;37186;51.394;5.454;2023-04-25T12:58:21;4.23;;;4.13;;
26820;SDS011;37186;51.394;5.454;2023-04-25T13:01:23;4.40;;;4.30;;
26820;SDS011;37186;51.394;5.454;2023-04-25T13:04:25;4.27;;;4.17;;
26820;SDS011;37186;51.394;5.454;2023-04-25T13:07:26;4.40;;;4.30;;
26820;SDS011;37186;51.394;5.454;2023-04-25T13:10:27;4.17;;;4.07;;
26820;SDS011;37186;51.394;5.454;2023-04-25T13:13:27;4.23;;;4.13;;
26820;SDS011;37186;51.394;5.454;2023-04-25T13:16:28;4.10;;;4.00;;
26820;SDS011;37186;51.394;5.454;2023-04-25T13:19:29;4.23;;;4.13;;
26820;SDS011;37186;51.394;5.454;2023-04-25T13:22:29;4.00;;;3.90;;
26820;SDS011;37186;51.394;5.454;2023-04-25T13:25:30;4.23;;;4.13;;
26820;SDS011;37186;51.394;5.454;2023-04-25T13:28:30;4.20;;;4.10;;
26820;SDS011;37186;51.394;5.454;2023-04-25T13:31:31;3.77;;;3.67;;
26820;SDS011;37186;51.394;5.454;2023-04-25T13:34:31;4.03;;;3.93;;
26820;SDS011;37186;51.394;5.454;2023-04-25T13:37:32;3.90;;;3.80;;
26820;SDS011;37186;51.394;5.454;2023-04-25T13:40:33;4.10;;;4.00;;
26820;SDS011;37186;51.394;5.454;2023-04-25T13:43:33;4.30;;;4.20;;
26820;SDS011;37186;51.394;5.454;2023-04-25T13:46:34;4.60;;;4.50;;
26820;SDS011;37186;51.394;5.454;2023-04-25T13:49:37;3.53;;;3.43;;
26820;SDS011;37186;51.394;5.454;2023-04-25T13:52:37;3.43;;;3.33;;
26820;SDS011;37186;51.394;5.454;2023-04-25T13:55:38;3.50;;;3.40;;
26820;SDS011;37186;51.394;5.454;2023-04-25T13:58:38;3.47;;;3.37;;
26820;SDS011;37186;51.394;5.454;2023-04-25T14:01:39;3.20;;;3.10;;
26820;SDS011;37186;51.394;5.454;2023-04-25T14:04:40;3.50;;;3.40;;
26820;SDS011;37186;51.394;5.454;2023-04-25T14:07:41;3.23;;;3.13;;
26820;SDS011;37186;51.394;5.454;2023-04-25T14:10:41;3.57;;;3.47;;
26820;SDS011;37186;51.394;5.454;2023-04-25T14:13:42;3.40;;;3.30;;
26820;SDS011;37186;51.394;5.454;2023-04-25T14:16:42;3.50;;;3.40;;
26820;SDS011;37186;51.394;5.454;2023-04-25T14:19:43;3.27;;;3.17;;
26820;SDS011;37186;51.394;5.454;2023-04-25T14:22:45;3.53;;;3.43;;
26820;SDS011;37186;51.394;5.454;2023-04-25T14:25:46;3.70;;;3.60;;
26820;SDS011;37186;51.394;5.454;2023-04-25T14:28:46;3.50;;;3.40;;
26820;SDS011;37186;51.394;5.454;2023-04-25T14:31:47;3.20;;;3.10;;
26820;SDS011;37186;51.394;5.454;2023-04-25T14:34:47;3.13;;;3.03;;
26820;SDS011;37186;51.394;5.454;2023-04-25T14:37:48;3.20;;;3.10;;
26820;SDS011;37186;51.394;5.454;2023-04-25T14:40:49;3.17;;;3.07;;
26820;SDS011;37186;51.394;5.454;2023-04-25T14:43:50;3.23;;;3.13;;
26820;SDS011;37186;51.394;5.454;2023-04-25T14:46:50;3.17;;;3.08;;
26820;SDS011;37186;51.394;5.454;2023-04-25T14:49:51;3.25;;;3.15;;
26820;SDS011;37186;51.394;5.454;2023-04-25T14:52:54;3.03;;;2.92;;
26820;SDS011;37186;51.394;5.454;2023-04-25T14:55:58;3.00;;;2.90;;
26820;SDS011;37186;51.394;5.454;2023-04-25T14:58:59;3.10;;;3.00;;
26820;SDS011;37186;51.394;5.454;2023-04-25T15:01:59;3.20;;;3.10;;
26820;SDS011;37186;51.394;5.454;2023-04-25T15:05:00;3.30;;;3.20;;
26820;SDS011;37186;51.394;5.454;2023-04-25T15:08:01;3.43;;;3.33;;
26820;SDS011;37186;51.394;5.454;2023-04-25T15:11:02;3.47;;;3.37;;
26820;SDS011;37186;51.394;5.454;2023-04-25T15:14:03;3.63;;;3.53;;
26820;SDS011;37186;51.394;5.454;2023-04-25T15:17:04;3.67;;;3.58;;
26820;SDS011;37186;51.394;5.454;2023-04-25T15:20:05;3.33;;;3.22;;
26820;SDS011;37186;51.394;5.454;2023-04-25T15:23:12;3.63;;;3.53;;
26820;SDS011;37186;51.394;5.454;2023-04-25T15:26:13;3.45;;;3.35;;
26820;SDS011;37186;51.394;5.454;2023-04-25T15:29:14;3.40;;;3.30;;
26820;SDS011;37186;51.394;5.454;2023-04-25T15:32:15;3.40;;;3.30;;
26820;SDS011;37186;51.394;5.454;2023-04-25T15:35:15;3.28;;;3.17;;
26820;SDS011;37186;51.394;5.454;2023-04-25T15:38:16;3.20;;;3.10;;
26820;SDS011;37186;51.394;5.454;2023-04-25T15:41:17;3.30;;;3.20;;
26820;SDS011;37186;51.394;5.454;2023-04-25T15:44:17;3.17;;;3.08;;
26820;SDS011;37186;51.394;5.454;2023-04-25T15:47:18;3.13;;;3.03;;
26820;SDS011;37186;51.394;5.454;2023-04-25T15:50:18;3.00;;;2.90;;
26820;SDS011;37186;51.394;5.454;2023-04-25T15:53:19;3.20;;;3.10;;
26820;SDS011;37186;51.394;5.454;2023-04-25T15:56:20;3.20;;;3.10;;
26820;SDS011;37186;51.394;5.454;2023-04-25T15:59:21;3.30;;;3.20;;
26820;SDS011;37186;51.394;5.454;2023-04-25T16:02:21;4.38;;;4.28;;
26820;SDS011;37186;51.394;5.454;2023-04-25T16:05:22;4.40;;;4.30;;
26820;SDS011;37186;51.394;5.454;2023-04-25T16:08:23;4.90;;;4.80;;
26820;SDS011;37186;51.394;5.454;2023-04-25T16:11:24;4.43;;;4.32;;
26820;SDS011;37186;51.394;5.454;2023-04-25T16:14:25;4.25;;;4.15;;
26820;SDS011;37186;51.394;5.454;2023-04-25T16:17:25;4.60;;;4.50;;
26820;SDS011;37186;51.394;5.454;2023-04-25T16:20:28;4.30;;;4.20;;
26820;SDS011;37186;51.394;5.454;2023-04-25T16:23:29;3.55;;;3.45;;
26820;SDS011;37186;51.394;5.454;2023-04-25T16:26:30;3.38;;;3.28;;
26820;SDS011;37186;51.394;5.454;2023-04-25T16:29:30;3.72;;;3.63;;
26820;SDS011;37186;51.394;5.454;2023-04-25T16:32:31;3.90;;;3.80;;
26820;SDS011;37186;51.394;5.454;2023-04-25T16:35:31;3.88;;;3.78;;
26820;SDS011;37186;51.394;5.454;2023-04-25T16:38:32;4.45;;;4.35;;
26820;SDS011;37186;51.394;5.454;2023-04-25T16:41:33;4.60;;;4.50;;
26820;SDS011;37186;51.394;5.454;2023-04-25T16:44:33;5.10;;;5.00;;
26820;SDS011;37186;51.394;5.454;2023-04-25T16:47:34;4.30;;;4.20;;
26820;SDS011;37186;51.394;5.454;2023-04-25T16:50:35;4.07;;;3.97;;
26820;SDS011;37186;51.394;5.454;2023-04-25T16:53:35;3.97;;;3.88;;
26820;SDS011;37186;51.394;5.454;2023-04-25T16:56:36;4.13;;;4.03;;
26820;SDS011;37186;51.394;5.454;2023-04-25T16:59:37;3.63;;;3.53;;
26820;SDS011;37186;51.394;5.454;2023-04-25T17:02:38;3.38;;;3.28;;
26820;SDS011;37186;51.394;5.454;2023-04-25T17:05:38;3.40;;;3.30;;
26820;SDS011;37186;51.394;5.454;2023-04-25T17:08:39;3.20;;;3.10;;
26820;SDS011;37186;51.394;5.454;2023-04-25T17:11:40;3.78;;;3.67;;
26820;SDS011;37186;51.394;5.454;2023-04-25T17:14:41;3.70;;;3.60;;
26820;SDS011;37186;51.394;5.454;2023-04-25T17:17:42;3.55;;;3.45;;
26820;SDS011;37186;51.394;5.454;2023-04-25T17:20:42;3.40;;;3.30;;
26820;SDS011;37186;51.394;5.454;2023-04-25T17:23:43;3.30;;;3.20;;
26820;SDS011;37186;51.394;5.454;2023-04-25T17:26:44;3.60;;;3.50;;
26820;SDS011;37186;51.394;5.454;2023-04-25T17:29:45;3.80;;;3.70;;
26820;SDS011;37186;51.394;5.454;2023-04-25T17:32:45;4.00;;;3.90;;
26820;SDS011;37186;51.394;5.454;2023-04-25T17:35:46;4.32;;;4.22;;
26820;SDS011;37186;51.394;5.454;2023-04-25T17:38:46;4.15;;;4.05;;
26820;SDS011;37186;51.394;5.454;2023-04-25T17:41:47;4.00;;;3.90;;
26820;SDS011;37186;51.394;5.454;2023-04-25T17:44:47;3.80;;;3.70;;
26820;SDS011;37186;51.394;5.454;2023-04-25T17:47:48;3.75;;;3.65;;
26820;SDS011;37186;51.394;5.454;2023-04-25T17:50:49;3.95;;;3.85;;
26820;SDS011;37186;51.394;5.454;2023-04-25T17:53:50;3.85;;;3.75;;
26820;SDS011;37186;51.394;5.454;2023-04-25T17:56:50;3.60;;;3.50;;
26820;SDS011;37186;51.394;5.454;2023-04-25T17:59:52;3.80;;;3.70;;
26820;SDS011;37186;51.394;5.454;2023-04-25T18:02:55;3.80;;;3.70;;
26820;SDS011;37186;51.394;5.454;2023-04-25T18:05:55;3.83;;;3.72;;
26820;SDS011;37186;51.394;5.454;2023-04-25T18:08:56;3.40;;;3.30;;
26820;SDS011;37186;51.394;5.454;2023-04-25T18:11:56;3.38;;;3.28;;
26820;SDS011;37186;51.394;5.454;2023-04-25T18:14:57;3.10;;;3.00;;
26820;SDS011;37186;51.394;5.454;2023-04-25T18:17:58;3.10;;;3.00;;
26820;SDS011;37186;51.394;5.454;2023-04-25T18:21:01;2.80;;;2.70;;
26820;SDS011;37186;51.394;5.454;2023-04-25T18:24:04;2.90;;;2.80;;